Time;durP1;ratioP1;P1;durP2;ratioP2;P2;SDS_P1;SDS_P2;PMS_P1;PMS_P2;Temp;Humidity;BMP_temperature;BMP_pressure;BME280_temperature;BME280_humidity;BME280_pressure;Samples;Min_cycle;Max_cycle;Signal;HPM_P1;HPM_P2
2022/11/17 00:00:43;;;;;;;5.43;4.43;;;6.00;99.90;;;-141.84;81.28;18944.09;5052827;28;20282;-61
2022/11/17 00:03:14;;;;;;;4.80;4.33;;;5.80;99.90;;;-141.84;80.81;18948.16;5052057;28;20256;-62
2022/11/17 00:05:43;;;;;;;4.23;3.70;;;5.80;99.90;;;-141.84;81.36;18956.28;5052847;28;20240;-61
2022/11/17 00:08:11;;;;;;;5.10;3.70;;;5.80;99.90;;;-141.84;81.61;18960.34;5052318;28;20228;-61
2022/11/17 00:10:39;;;;;;;4.53;4.07;;;5.80;99.90;;;-141.84;81.35;18946.13;5052423;28;20209;-60
2022/11/17 00:15:57;;;;;;;4.40;4.00;;;5.90;99.90;;;-141.84;80.16;18962.38;5052143;28;20225;-61
2022/11/17 00:21:20;;;;;;;3.80;3.43;;;5.90;99.90;;;-141.84;79.74;18948.16;5052113;28;20248;-61
2022/11/17 00:23:48;;;;;;;3.87;3.47;;;5.90;99.90;;;-141.84;80.31;18966.44;5051535;28;20311;-62
2022/11/17 00:26:20;;;;;;;4.53;3.63;;;5.80;99.90;;;-141.84;80.28;18913.59;5051787;28;20312;-61
2022/11/17 00:28:51;;;;;;;4.00;3.60;;;5.80;99.90;;;-141.84;80.13;18944.09;5051755;28;20645;-61
2022/11/17 00:34:12;;;;;;;4.50;3.67;;;5.80;99.90;;;-141.84;79.91;18958.31;5059177;28;20420;-61
2022/11/17 00:36:43;;;;;;;3.47;3.17;;;5.80;99.90;;;-141.84;79.72;18942.06;5054697;28;20375;-61
2022/11/17 00:39:13;;;;;;;3.77;3.40;;;5.70;99.90;;;-141.84;79.93;18956.28;5044073;28;20276;-61
2022/11/17 00:41:42;;;;;;;4.87;4.00;;;5.80;99.90;;;-141.84;79.51;18923.78;5032366;28;20230;-61
2022/11/17 00:44:10;;;;;;;4.50;3.40;;;5.70;99.90;;;-141.84;79.24;18968.47;5032162;28;20236;-61
2022/11/17 00:46:41;;;;;;;3.73;3.40;;;5.70;99.90;;;-141.84;79.66;18956.28;5031621;28;20234;-61
2022/11/17 00:49:11;;;;;;;3.37;3.00;;;5.70;99.90;;;-141.84;79.37;18952.22;5032407;28;20649;-62
2022/11/17 00:51:39;;;;;;;3.87;3.00;;;5.70;99.90;;;-141.84;79.26;18958.31;5031852;28;20222;-62
2022/11/17 00:54:12;;;;;;;2.90;2.70;;;5.70;99.90;;;-141.84;79.93;18942.06;5031792;28;20240;-63
2022/11/17 00:56:40;;;;;;;3.57;2.93;;;5.70;99.90;;;-141.84;78.71;18968.47;5032107;28;20260;-61
2022/11/17 00:59:09;;;;;;;3.43;2.83;;;5.70;99.90;;;-141.84;78.95;18972.53;5031749;28;20226;-61
2022/11/17 01:01:39;;;;;;;3.30;3.00;;;5.80;99.90;;;-141.84;78.87;18933.94;5031983;28;20217;-60
2022/11/17 01:04:08;;;;;;;2.93;2.63;;;5.70;99.90;;;-141.84;79.39;18958.31;5032163;28;20896;-61
2022/11/17 01:06:39;;;;;;;3.27;2.97;;;5.60;99.90;;;-141.84;78.96;18952.22;5031781;28;20225;-61
2022/11/17 01:09:12;;;;;;;3.53;2.80;;;5.70;99.90;;;-141.84;79.19;18966.44;5031289;28;20233;-62
2022/11/17 01:11:41;;;;;;;3.20;2.50;;;5.60;99.90;;;-141.84;78.68;18974.56;5031846;28;20260;-61
2022/11/17 01:14:14;;;;;;;3.03;2.73;;;5.60;99.90;;;-141.84;78.21;18960.34;5031271;28;20249;-61
2022/11/17 01:16:44;;;;;;;2.70;2.40;;;5.70;99.90;;;-141.84;78.70;18944.09;5031809;28;20190;-60
2022/11/17 01:19:14;;;;;;;2.87;2.50;;;5.60;99.90;;;-141.84;79.05;18952.22;5031641;28;20212;-61
2022/11/17 01:21:43;;;;;;;2.63;2.33;;;5.60;99.90;;;-141.84;78.83;18964.41;5031162;28;20237;-61
2022/11/17 01:24:14;;;;;;;3.30;2.73;;;5.60;99.90;;;-141.84;78.76;18994.88;5031147;28;20724;-60
2022/11/17 01:26:45;;;;;;;3.47;2.90;;;5.60;99.90;;;-141.84;78.82;18970.50;5031758;28;20723;-61
2022/11/17 01:29:16;;;;;;;2.90;2.57;;;5.60;99.90;;;-141.84;78.97;18946.13;5031499;28;20234;-60
2022/11/17 01:31:51;;;;;;;3.13;2.83;;;5.60;99.90;;;-141.84;79.16;18946.13;5031563;28;20201;-61
2022/11/17 01:34:20;;;;;;;4.13;2.90;;;5.60;99.90;;;-141.84;78.89;18948.16;5031040;28;20874;-62
2022/11/17 01:39:34;;;;;;;3.10;2.77;;;5.60;99.90;;;-141.84;78.13;18974.56;5023123;28;20613;-61
2022/11/17 01:42:09;;;;;;;3.10;2.80;;;5.60;99.90;;;-141.84;78.31;18948.16;5020869;28;20290;-61
2022/11/17 01:44:58;;;;;;;3.10;2.70;;;5.50;99.90;;;-141.84;78.95;18946.13;5030936;28;20747;-61
2022/11/17 01:47:42;;;;;;;3.20;2.90;;;5.60;99.90;;;-141.84;78.48;18962.38;5031206;28;20233;-62
2022/11/17 01:50:24;;;;;;;2.90;2.63;;;5.60;99.90;;;-141.84;78.86;18944.09;5031202;28;20232;-62
2022/11/17 01:52:58;;;;;;;3.07;2.77;;;5.60;99.90;;;-141.84;78.67;19009.09;5031243;28;20236;-62
2022/11/17 01:55:33;;;;;;;3.00;2.67;;;5.60;99.90;;;-141.84;78.18;18935.97;5031625;28;20281;-62
2022/11/17 01:58:08;;;;;;;2.80;2.60;;;5.60;99.90;;;-141.84;77.96;18952.22;5051249;28;20202;-60
2022/11/17 02:00:36;;;;;;;3.47;2.90;;;5.60;99.90;;;-141.84;78.11;18946.13;5050978;28;20236;-60
2022/11/17 02:03:10;;;;;;;2.87;2.67;;;5.60;99.90;;;-141.84;78.02;18938.00;5050575;28;20577;-59
2022/11/17 02:05:51;;;;;;;4.27;2.60;;;5.60;99.90;;;-141.84;77.52;18964.41;5050933;28;20228;-60
2022/11/17 02:08:24;;;;;;;2.93;2.63;;;5.60;99.90;;;-141.84;77.84;18960.34;5051199;28;20233;-61
2022/11/17 02:10:53;;;;;;;2.67;2.47;;;5.60;99.90;;;-141.84;77.40;18956.28;5050512;28;20895;-62
2022/11/17 02:13:22;;;;;;;2.63;2.43;;;5.60;99.90;;;-141.84;77.69;18958.31;5051311;28;20224;-61
2022/11/17 02:15:50;;;;;;;3.10;2.80;;;5.60;99.90;;;-141.84;77.58;18990.81;5050749;28;20227;-61
2022/11/17 02:18:21;;;;;;;3.00;2.70;;;5.60;99.90;;;-141.84;77.58;18972.53;5050321;28;20294;-61
2022/11/17 02:21:22;;;;;;;3.20;2.90;;;5.60;99.90;;;-141.84;77.82;18974.56;5050884;28;20233;-62
2022/11/17 02:24:42;;;;;;;3.10;2.77;;;5.60;99.90;;;-141.84;77.81;18956.28;5050476;28;20229;-60
2022/11/17 02:27:48;;;;;;;3.37;3.07;;;5.60;99.90;;;-141.84;78.11;18966.44;5048846;28;20277;-60
2022/11/17 02:30:20;;;;;;;2.80;2.60;;;5.60;99.90;;;-141.84;77.94;18978.63;5050505;28;20278;-61
2022/11/17 02:33:02;;;;;;;3.33;3.03;;;5.60;99.90;;;-141.84;78.04;18948.16;5054511;28;20272;-61
2022/11/17 02:35:45;;;;;;;3.30;3.00;;;5.60;99.90;;;-141.84;78.09;18964.41;5054469;28;20663;-61
2022/11/17 02:38:29;;;;;;;4.43;3.43;;;5.60;99.90;;;-141.84;77.95;18974.56;5054378;28;20221;-61
2022/11/17 02:41:09;;;;;;;3.77;3.30;;;5.60;99.90;;;-141.84;77.69;18962.38;5054536;28;20248;-64
2022/11/17 02:46:50;;;;;;;4.33;3.27;;;5.60;99.90;;;-141.84;77.89;18946.13;5054788;28;20232;-63
2022/11/17 02:49:24;;;;;;;4.23;3.30;;;5.60;99.90;;;-141.84;77.30;18978.63;5054858;28;20206;-61
2022/11/17 02:51:57;;;;;;;4.40;3.70;;;5.70;99.90;;;-141.84;77.92;18964.41;5054258;28;20233;-61
2022/11/17 02:54:29;;;;;;;3.90;3.37;;;5.60;99.90;;;-141.84;78.15;18970.50;5054144;28;20236;-61
2022/11/17 02:56:57;;;;;;;4.33;3.50;;;5.60;99.90;;;-141.84;78.09;18978.63;5054327;28;20313;-61
2022/11/17 02:59:35;;;;;;;3.93;3.53;;;5.60;99.90;;;-141.84;77.45;18952.22;5054263;28;20232;-62
2022/11/17 03:02:35;;;;;;;4.80;3.57;;;5.60;99.90;;;-141.84;77.85;18992.84;5053492;28;20277;-61
2022/11/17 03:05:15;;;;;;;4.93;4.20;;;5.60;99.90;;;-141.84;77.71;18980.66;5054061;28;20282;-60
2022/11/17 03:08:08;;;;;;;4.00;3.40;;;5.60;99.90;;;-141.84;77.43;18956.28;5053980;28;20561;-61
2022/11/17 03:10:51;;;;;;;4.03;3.60;;;5.60;99.90;;;-141.84;78.11;18962.38;5053800;28;20209;-62
2022/11/17 03:13:27;;;;;;;4.40;3.50;;;5.60;99.90;;;-141.84;77.95;19000.97;5054397;28;20214;-61
2022/11/17 03:16:10;;;;;;;3.97;3.47;;;5.60;99.90;;;-141.84;77.93;18984.72;5053967;28;20278;-60
2022/11/17 03:18:55;;;;;;;3.90;3.50;;;5.60;99.90;;;-141.84;77.96;18984.72;5053635;28;20227;-59
2022/11/17 03:21:31;;;;;;;4.13;3.73;;;5.60;99.90;;;-141.84;77.63;18948.16;5053677;28;20792;-60
2022/11/17 03:24:05;;;;;;;4.70;4.03;;;5.60;99.90;;;-141.84;77.88;18958.31;5054274;28;20692;-61
2022/11/17 03:26:39;;;;;;;3.90;3.50;;;5.50;99.90;;;-141.84;78.27;18948.16;5053713;28;20236;-62
2022/11/17 03:29:14;;;;;;;4.10;3.60;;;5.50;99.90;;;-141.84;77.92;18966.44;5053836;28;20259;-61
2022/11/17 03:31:48;;;;;;;4.37;3.93;;;5.50;99.90;;;-141.84;77.83;18982.69;5053751;28;20185;-61
2022/11/17 03:34:22;;;;;;;4.00;3.50;;;5.50;99.90;;;-141.84;77.64;18968.47;5053463;28;20689;-61
2022/11/17 03:36:58;;;;;;;4.23;3.80;;;5.70;99.90;;;-141.84;78.04;18986.75;5053532;28;20318;-60
2022/11/17 03:39:33;;;;;;;4.17;3.43;;;5.60;99.90;;;-141.84;77.89;18980.66;5053588;28;20236;-61
2022/11/17 03:42:08;;;;;;;4.07;3.77;;;5.60;99.90;;;-141.84;77.99;18948.16;5053455;28;20726;-60
2022/11/17 03:44:42;;;;;;;3.60;3.30;;;5.60;99.90;;;-141.84;77.62;18944.09;5052700;28;20228;-61
2022/11/17 03:47:15;;;;;;;4.47;3.77;;;5.60;99.90;;;-141.84;77.56;19025.38;5052845;28;20241;-61
2022/11/17 03:49:51;;;;;;;4.10;3.70;;;5.50;99.90;;;-141.84;77.48;18968.47;5053131;28;20640;-61
2022/11/17 03:52:20;;;;;;;3.90;3.50;;;5.60;99.90;;;-141.84;77.44;18958.31;5053664;28;20196;-62
2022/11/17 03:54:49;;;;;;;3.83;3.47;;;5.50;99.90;;;-141.84;76.95;18964.41;5053117;28;20272;-61
2022/11/17 03:57:26;;;;;;;3.30;3.00;;;5.60;99.90;;;-141.84;77.26;18933.94;5052882;28;20236;-62
2022/11/17 04:00:01;;;;;;;3.93;3.60;;;5.50;99.90;;;-141.84;76.86;18970.50;5052898;28;20236;-61
2022/11/17 04:02:30;;;;;;;3.90;3.60;;;5.50;99.90;;;-141.84;77.06;18968.47;5053007;28;20707;-61
2022/11/17 04:05:08;;;;;;;4.20;3.60;;;5.50;99.90;;;-141.84;76.65;18982.69;5053154;28;20244;-61
2022/11/17 04:07:39;;;;;;;4.67;3.47;;;5.50;99.90;;;-141.84;76.93;18980.66;5052755;28;20193;-60
2022/11/17 04:10:10;;;;;;;3.70;3.37;;;5.40;99.90;;;-141.84;76.81;18980.66;5053592;28;20201;-62
2022/11/17 04:18:12;;;;;;;4.70;3.50;;;5.40;99.90;;;-141.84;77.23;18966.44;5052197;28;20727;-61
2022/11/17 04:20:41;;;;;;;3.97;3.40;;;5.40;99.90;;;-141.84;77.17;18976.59;5052036;28;20233;-63
2022/11/17 04:23:13;;;;;;;4.13;3.73;;;5.50;99.90;;;-141.84;76.92;18944.09;5052257;28;20229;-61
2022/11/17 04:28:37;;;;;;;4.80;3.87;;;5.40;99.90;;;-141.84;77.25;18978.63;5052691;28;20182;-61
2022/11/17 04:31:10;;;;;;;4.53;3.70;;;5.40;99.90;;;-141.84;77.34;18972.53;5052181;28;20605;-62
2022/11/17 04:33:42;;;;;;;4.47;4.07;;;5.40;99.90;;;-141.84;77.94;18996.91;5052156;28;20634;-62
2022/11/17 04:36:12;;;;;;;4.73;3.87;;;5.40;99.90;;;-141.84;77.28;18952.22;5052030;28;20250;-62
2022/11/17 04:38:42;;;;;;;3.83;3.53;;;5.30;99.90;;;-141.84;76.55;18964.41;5047894;28;20651;-61
2022/11/17 04:44:00;;;;;;;3.70;3.40;;;5.40;99.90;;;-141.84;76.74;18954.25;5032145;28;20593;-61
2022/11/17 04:46:31;;;;;;;4.27;3.87;;;5.30;99.90;;;-141.84;77.11;18935.97;5032129;28;20240;-61
2022/11/17 04:49:01;;;;;;;4.77;3.90;;;5.30;99.90;;;-141.84;77.47;18978.63;5032367;28;20240;-61
2022/11/17 04:51:31;;;;;;;4.00;3.70;;;5.30;99.90;;;-141.84;77.10;18972.53;5031884;28;20247;-62
2022/11/17 04:53:59;;;;;;;3.83;3.43;;;5.30;99.90;;;-141.84;77.16;18966.44;5031632;28;20268;-62
2022/11/17 04:56:28;;;;;;;4.23;3.83;;;5.30;99.90;;;-141.84;77.49;18964.41;5031864;28;20233;-62
2022/11/17 04:58:57;;;;;;;4.10;3.50;;;5.30;99.90;;;-141.84;77.10;18980.66;5031701;28;20236;-61
2022/11/17 05:01:27;;;;;;;5.20;3.50;;;5.30;99.90;;;-141.84;77.24;18966.44;5032222;28;20206;-62
2022/11/17 05:03:57;;;;;;;4.10;3.70;;;5.20;99.90;;;-141.84;77.37;18962.38;5031512;28;20222;-60
2022/11/17 05:06:30;;;;;;;4.13;3.60;;;5.20;99.90;;;-141.84;77.57;18972.53;5031760;28;20257;-61
2022/11/17 05:09:01;;;;;;;4.47;4.07;;;5.30;99.90;;;-141.84;77.48;18935.97;5031648;28;20226;-61
2022/11/17 05:14:20;;;;;;;4.47;4.07;;;5.30;99.90;;;-141.84;76.76;18974.56;5031656;28;20237;-62
2022/11/17 05:17:05;;;;;;;4.53;4.03;;;5.30;99.90;;;-141.84;77.22;18976.59;5031640;28;20190;-62
2022/11/17 05:19:40;;;;;;;4.33;3.80;;;5.20;99.90;;;-141.84;77.78;18940.03;5041983;28;20637;-62
2022/11/17 05:24:57;;;;;;;5.20;4.17;;;5.20;99.90;;;-141.84;76.65;18950.19;5031708;28;20201;-60
2022/11/17 05:27:26;;;;;;;4.73;4.00;;;5.20;99.90;;;-141.84;77.00;18954.25;5047439;28;20253;-61
2022/11/17 05:29:54;;;;;;;4.80;4.20;;;5.20;99.90;;;-141.84;76.92;18968.47;5051694;28;20228;-61
2022/11/17 05:32:22;;;;;;;5.17;4.20;;;5.20;99.90;;;-141.84;77.48;18927.84;5051592;28;20243;-61
2022/11/17 05:34:51;;;;;;;4.40;3.87;;;5.20;99.90;;;-141.84;77.80;18946.13;5064151;28;20212;-61
2022/11/17 05:37:20;;;;;;;5.17;3.90;;;5.10;99.90;;;-141.84;77.32;18956.28;5072690;28;20204;-61
2022/11/17 05:39:48;;;;;;;4.10;3.60;;;5.20;99.90;;;-141.84;77.03;18976.59;5059436;28;20232;-60
2022/11/17 05:42:17;;;;;;;4.00;3.60;;;5.20;99.90;;;-141.84;77.07;18958.31;5051486;28;20274;-60
2022/11/17 05:44:46;;;;;;;3.90;3.60;;;5.20;99.90;;;-141.84;76.91;18946.13;5051196;28;20224;-61
2022/11/17 05:47:15;;;;;;;4.37;3.40;;;5.20;99.90;;;-141.84;77.44;18940.03;5051321;28;20606;-62
2022/11/17 05:49:43;;;;;;;5.37;4.30;;;5.10;99.90;;;-141.84;77.71;18958.31;5051152;28;20209;-61
2022/11/17 05:52:11;;;;;;;4.47;3.43;;;;;;;-141.84;77.12;18948.16;5051911;28;20212;-61
2022/11/17 05:54:41;;;;;;;4.20;3.80;;;5.10;99.90;;;-141.84;77.64;18940.03;5050655;28;20577;-61
2022/11/17 05:57:15;;;;;;;5.10;3.60;;;5.10;99.90;;;-141.84;77.50;18944.09;5051233;28;20239;-61
2022/11/17 05:59:50;;;;;;;4.30;3.90;;;5.10;99.90;;;-141.84;77.20;18944.09;5051125;28;20782;-60
2022/11/17 06:02:24;;;;;;;4.27;3.83;;;5.10;99.90;;;-141.84;77.15;18958.31;5051286;28;20281;-61
2022/11/17 06:04:52;;;;;;;4.57;3.90;;;5.10;99.90;;;-141.84;77.16;18962.38;5051144;28;20227;-60
2022/11/17 06:07:20;;;;;;;6.17;4.00;;;5.10;99.90;;;-141.84;77.32;18956.28;5051208;28;20211;-60
2022/11/17 06:09:52;;;;;;;5.07;3.90;;;5.10;99.90;;;-141.84;77.85;18923.78;5050612;28;20255;-60
2022/11/17 06:12:20;;;;;;;5.70;4.33;;;5.00;99.90;;;-141.84;77.47;18942.06;5050940;28;20232;-61
2022/11/17 06:14:48;;;;;;;4.60;4.17;;;5.00;99.90;;;-141.84;77.03;18954.25;5050545;28;20237;-61
2022/11/17 06:17:22;;;;;;;4.77;3.90;;;5.10;99.90;;;-141.84;77.04;18948.16;5051016;28;20229;-62
2022/11/17 06:19:55;;;;;;;6.37;4.30;;;5.00;99.90;;;-141.84;77.27;18944.09;5051038;28;20198;-61
2022/11/17 06:22:26;;;;;;;5.37;3.97;;;5.00;99.90;;;-141.84;77.49;18940.03;5051256;28;20199;-60
2022/11/17 06:24:57;;;;;;;4.57;3.90;;;5.00;99.90;;;-141.84;77.17;18956.28;5050462;28;20258;-61
2022/11/17 06:27:27;;;;;;;4.87;4.10;;;5.10;99.90;;;-141.84;77.67;18944.09;5050748;28;20228;-60
2022/11/17 06:29:58;;;;;;;4.33;3.93;;;5.10;99.90;;;-141.84;77.32;18952.22;5050526;28;20235;-61
2022/11/17 06:32:29;;;;;;;4.40;4.00;;;5.00;99.90;;;-141.84;77.50;18946.13;5051021;28;20258;-60
2022/11/17 06:34:57;;;;;;;4.90;4.30;;;5.10;99.90;;;-141.84;77.11;18956.28;5064033;28;20229;-60
2022/11/17 06:37:26;;;;;;;6.00;4.13;;;5.10;99.90;;;-141.84;77.15;18962.38;5071433;28;20208;-60
2022/11/17 06:39:55;;;;;;;6.00;4.17;;;5.00;99.90;;;-141.84;77.42;18946.13;5056570;28;20274;-62
2022/11/17 06:45:07;;;;;;;6.73;4.57;;;5.00;99.90;;;-141.84;77.70;18938.00;5050919;28;20603;-61
2022/11/17 06:47:36;;;;;;;5.00;4.17;;;;;;;-141.84;77.50;18960.34;5050441;28;20722;-60
2022/11/17 06:50:05;;;;;;;4.60;4.10;;;5.10;99.90;;;-141.84;77.58;18948.16;5050533;28;20739;-61
2022/11/17 06:52:33;;;;;;;5.70;4.83;;;5.00;99.90;;;-141.84;77.77;18929.88;5050770;28;20208;-61
2022/11/17 06:55:03;;;;;;;5.40;4.70;;;5.00;99.90;;;-141.84;77.74;18923.78;5050798;28;20221;-61
2022/11/17 06:57:31;;;;;;;4.83;4.30;;;5.00;99.90;;;-141.84;77.53;18944.09;5050739;28;20276;-60
2022/11/17 07:00:00;;;;;;;6.10;4.67;;;5.00;99.90;;;-141.84;77.07;18978.63;5050471;28;20228;-61
2022/11/17 07:02:28;;;;;;;6.80;4.00;;;5.10;99.90;;;-141.84;77.23;18944.09;5050570;28;20633;-62
2022/11/17 07:04:56;;;;;;;4.67;4.20;;;5.10;99.90;;;-141.84;76.72;18968.47;5050192;28;20861;-60
2022/11/17 07:07:24;;;;;;;5.10;4.60;;;5.10;99.90;;;-141.84;76.82;18944.09;5050766;28;20424;-61
2022/11/17 07:09:52;;;;;;;5.03;4.33;;;5.10;99.90;;;-141.84;77.02;18938.00;5049825;28;20224;-60
2022/11/17 07:12:22;;;;;;;4.70;4.20;;;5.10;99.90;;;-141.84;77.47;18942.06;5050380;28;20228;-59
2022/11/17 07:14:50;;;;;;;4.43;4.03;;;5.10;99.90;;;-141.84;77.00;18946.13;5049347;28;20282;-61
2022/11/17 07:17:18;;;;;;;4.97;4.30;;;5.10;99.90;;;-141.84;76.37;18946.13;5050252;28;20286;-61
2022/11/17 07:19:46;;;;;;;5.87;4.40;;;5.20;99.90;;;-141.84;76.92;18996.91;5052801;28;20205;-60
2022/11/17 07:22:14;;;;;;;4.77;4.20;;;5.20;99.90;;;-141.84;76.81;18978.63;5054215;28;20201;-60
2022/11/17 07:24:42;;;;;;;5.57;4.60;;;5.20;99.90;;;-141.84;76.33;19007.06;5053748;28;20264;-61
2022/11/17 07:27:10;;;;;;;6.53;4.83;;;5.30;99.90;;;-141.84;76.12;18950.19;5053697;28;20267;-61
2022/11/17 07:29:40;;;;;;;4.93;4.43;;;5.40;99.90;;;-141.84;75.83;19003.00;5053765;28;20228;-61
2022/11/17 07:32:12;;;;;;;4.90;4.40;;;5.30;99.90;;;-141.84;75.98;18976.59;5053650;28;20289;-61
2022/11/17 07:34:44;;;;;;;5.87;4.00;;;;;;;-141.84;76.15;19033.50;5064884;28;20204;-60
2022/11/17 07:37:12;;;;;;;4.77;4.07;;;5.40;99.90;;;-141.84;74.80;19000.97;5074126;28;20189;-60
2022/11/17 07:39:41;;;;;;;4.70;4.30;;;;;;;-141.84;74.29;19025.38;5061457;28;20232;-58
2022/11/17 07:42:09;;;;;;;5.07;4.20;;;;;;;-141.84;74.41;18998.94;5052633;28;20287;-60
2022/11/17 07:44:37;;;;;;;4.67;4.23;;;5.50;99.90;;;-141.84;74.13;18998.94;5052699;28;20235;-61
2022/11/17 07:47:07;;;;;;;6.10;4.17;;;5.70;99.90;;;-141.84;74.47;19015.19;5052544;28;20692;-61
2022/11/17 07:49:35;;;;;;;5.23;4.57;;;5.70;99.90;;;-141.84;74.37;18972.53;5053408;28;20208;-61
2022/11/17 07:52:03;;;;;;;4.60;4.10;;;5.70;99.90;;;-141.84;73.96;19009.09;5053397;28;20201;-62
2022/11/17 07:54:32;;;;;;;4.60;3.90;;;5.70;99.90;;;-141.84;74.11;19021.31;5053099;28;20234;-60
2022/11/17 07:57:00;;;;;;;4.30;3.90;;;5.70;99.90;;;-141.84;73.66;19033.50;5052858;28;20235;-62
2022/11/17 07:59:28;;;;;;;4.73;4.20;;;5.70;99.90;;;-141.84;73.70;19013.16;5052955;28;20229;-61
2022/11/17 08:01:56;;;;;;;4.80;4.07;;;5.70;99.90;;;-141.84;73.93;19009.09;5052778;28;20631;-61
2022/11/17 08:04:26;;;;;;;4.67;4.03;;;5.70;99.90;;;-141.84;74.10;19000.97;5053469;28;20607;-61
2022/11/17 08:06:54;;;;;;;4.47;4.07;;;5.80;99.90;;;-141.84;74.17;19015.19;5052706;28;20837;-60
2022/11/17 08:09:22;;;;;;;4.63;4.03;;;5.70;99.90;;;-141.84;74.29;19000.97;5052974;28;20224;-59
2022/11/17 08:11:51;;;;;;;4.23;3.80;;;5.70;99.90;;;-141.84;74.57;19007.06;5052586;28;20800;-60
2022/11/17 08:14:19;;;;;;;5.57;3.90;;;5.70;99.90;;;-141.84;74.64;19013.16;5052844;28;20225;-60
2022/11/17 08:16:47;;;;;;;6.03;4.07;;;5.70;99.90;;;-141.84;74.38;19057.88;5052429;28;20300;-61
2022/11/17 08:19:15;;;;;;;8.30;4.20;;;5.70;99.90;;;-141.84;73.87;19007.06;5052849;28;20205;-61
2022/11/17 08:21:45;;;;;;;5.70;3.60;;;5.80;99.90;;;-141.84;74.29;19013.16;5052637;28;20240;-61
2022/11/17 08:24:13;;;;;;;4.30;3.90;;;5.80;99.90;;;-141.84;74.08;19000.97;5052804;28;20275;-61
2022/11/17 08:26:41;;;;;;;4.67;3.93;;;5.80;99.90;;;-141.84;74.01;19005.03;5052456;28;20240;-59
2022/11/17 08:29:09;;;;;;;4.77;3.57;;;5.80;99.90;;;-141.84;74.31;19035.53;5052445;28;20225;-62
2022/11/17 08:31:40;;;;;;;4.30;3.67;;;5.80;99.90;;;-141.84;73.85;19055.84;5052183;28;20211;-62
2022/11/17 08:34:08;;;;;;;3.97;3.40;;;5.90;99.90;;;-141.84;74.11;19023.34;5059812;28;20275;-61
2022/11/17 08:36:36;;;;;;;4.47;3.80;;;5.90;99.90;;;-141.84;74.27;19025.38;5072117;28;20776;-63
2022/11/17 08:39:06;;;;;;;4.20;3.53;;;5.90;99.90;;;-141.84;74.30;19000.97;5065354;28;20240;-60
2022/11/17 08:41:34;;;;;;;3.73;3.43;;;5.80;99.90;;;-141.84;74.88;19025.38;5052391;28;20233;-61
2022/11/17 08:44:03;;;;;;;6.07;3.90;;;5.90;99.90;;;-141.84;75.47;18988.78;5052376;28;20232;-60
2022/11/17 08:46:31;;;;;;;3.30;2.97;;;5.80;99.90;;;-141.84;76.38;18994.88;5052564;28;20279;-61
2022/11/17 08:49:01;;;;;;;4.50;3.23;;;5.80;99.90;;;-141.84;77.19;19000.97;5052614;28;20221;-62
2022/11/17 08:51:30;;;;;;;4.03;3.60;;;5.70;99.90;;;-141.84;77.40;18978.63;5052281;28;20225;-62
2022/11/17 08:53:59;;;;;;;4.57;3.53;;;5.70;99.90;;;-141.84;77.54;18982.69;5051945;28;20603;-61
2022/11/17 08:56:28;;;;;;;4.77;3.60;;;5.70;99.90;;;-141.84;78.00;18960.34;5052026;28;20287;-61
2022/11/17 08:58:57;;;;;;;4.80;3.73;;;5.60;99.90;;;-141.84;78.23;19009.09;5051817;28;20719;-61
2022/11/17 09:01:25;;;;;;;4.77;3.77;;;5.60;99.90;;;-141.84;78.95;18978.63;5052490;28;20209;-60
2022/11/17 09:03:54;;;;;;;4.33;3.23;;;5.60;99.90;;;-141.84;78.96;18988.78;5051883;28;20719;-61
2022/11/17 09:06:22;;;;;;;3.90;3.50;;;5.60;99.90;;;-141.84;79.23;18984.72;5052125;28;20252;-63
2022/11/17 09:08:54;;;;;;;5.47;3.90;;;5.60;99.90;;;-141.84;79.82;18948.16;5051903;28;20225;-61
2022/11/17 09:11:22;;;;;;;5.90;4.00;;;5.60;99.90;;;-141.84;79.07;19003.00;5051435;28;20584;-60
2022/11/17 09:13:52;;;;;;;5.30;4.03;;;5.70;99.90;;;-141.84;78.27;19013.16;5051756;28;20212;-61
2022/11/17 09:16:22;;;;;;;4.23;3.53;;;5.80;99.90;;;-141.84;78.59;18974.56;5052543;28;20228;-62
2022/11/17 09:18:55;;;;;;;4.40;3.63;;;5.80;99.90;;;-141.84;78.97;18988.78;5050725;28;20239;-61
2022/11/17 09:21:25;;;;;;;5.73;4.37;;;5.80;99.90;;;-141.84;79.01;18968.47;5051574;28;20244;-61
2022/11/17 09:23:54;;;;;;;5.23;4.17;;;5.80;99.90;;;-141.84;78.56;18966.44;5051620;28;20229;-61
2022/11/17 09:26:22;;;;;;;5.77;4.60;;;5.90;99.90;;;-141.84;79.56;18954.25;5051511;28;20229;-62
2022/11/17 09:28:51;;;;;;;5.77;4.33;;;5.90;99.90;;;-141.84;79.19;19005.03;5051556;28;20206;-62
2022/11/17 09:31:22;;;;;;;4.87;3.80;;;5.90;99.90;;;-141.84;79.05;18974.56;5052162;28;20645;-62
2022/11/17 09:33:50;;;;;;;4.23;3.77;;;5.90;99.90;;;-141.84;78.94;18974.56;5055532;28;20219;-61
2022/11/17 09:36:18;;;;;;;4.50;4.00;;;5.90;99.90;;;-141.84;78.76;18998.94;5071541;28;20235;-62
2022/11/17 09:38:46;;;;;;;5.40;4.00;;;5.90;99.90;;;-141.84;78.87;18966.44;5066801;28;20643;-62
2022/11/17 09:41:26;;;;;;;4.30;3.90;;;5.90;99.90;;;-141.84;78.85;18988.78;5050624;28;20915;-60
2022/11/17 09:44:15;;;;;;;4.07;3.53;;;5.90;99.90;;;-141.84;79.56;18956.28;5051469;28;20263;-62
2022/11/17 09:47:02;;;;;;;4.03;3.57;;;5.90;99.90;;;-141.84;79.44;18994.88;5051110;28;20245;-62
2022/11/17 09:49:59;;;;;;;5.23;4.23;;;5.90;99.90;;;-141.84;79.20;18984.72;5051686;28;20192;-61
2022/11/17 09:52:33;;;;;;;5.80;4.20;;;5.90;99.90;;;-141.84;79.22;18982.69;5031036;28;20247;-62
2022/11/17 09:55:09;;;;;;;4.90;3.90;;;6.00;99.90;;;-141.84;79.86;18935.97;5032090;28;20182;-61
2022/11/17 09:57:45;;;;;;;4.93;4.30;;;5.90;99.90;;;-141.84;79.20;18986.75;5030925;28;20243;-61
2022/11/17 10:00:19;;;;;;;4.50;4.10;;;6.00;99.90;;;-141.84;79.72;18978.63;5031335;28;20235;-61
2022/11/17 10:02:48;;;;;;;5.13;4.30;;;6.00;99.90;;;-141.84;79.63;18954.25;5031142;28;20229;-60
2022/11/17 10:05:25;;;;;;;4.80;4.30;;;5.90;99.90;;;-141.84;79.75;18970.50;5031346;28;20226;-62
2022/11/17 10:08:00;;;;;;;5.83;4.57;;;5.90;99.90;;;-141.84;80.91;18962.38;5030900;28;20225;-60
2022/11/17 10:10:37;;;;;;;5.03;4.43;;;5.90;99.90;;;-141.84;81.29;18958.31;5031423;28;20647;-61
2022/11/17 10:13:17;;;;;;;4.77;4.27;;;5.90;99.90;;;-141.84;81.51;18954.25;5031125;28;20217;-60
2022/11/17 10:15:51;;;;;;;5.03;4.53;;;5.90;99.90;;;-141.84;81.31;18974.56;5049060;28;20241;-62
2022/11/17 10:18:19;;;;;;;5.20;4.33;;;5.90;99.90;;;-141.84;80.82;18978.63;5050371;28;20229;-61
2022/11/17 10:20:47;;;;;;;5.20;4.10;;;5.90;99.90;;;-141.84;80.85;18935.97;5050984;28;20228;-60
2022/11/17 10:23:19;;;;;;;5.23;4.27;;;5.90;99.90;;;-141.84;81.04;18962.38;5051077;28;20298;-59
2022/11/17 10:25:55;;;;;;;5.30;4.73;;;5.80;99.90;;;-141.84;81.60;18974.56;5050777;28;20182;-60
2022/11/17 10:28:30;;;;;;;5.63;4.50;;;5.90;99.90;;;-141.84;81.43;18958.31;5050755;28;20182;-60
2022/11/17 10:31:03;;;;;;;4.77;4.23;;;5.80;99.90;;;-141.84;81.62;18964.41;5051203;28;20607;-61
2022/11/17 10:33:38;;;;;;;4.47;4.00;;;5.80;99.90;;;-141.84;82.53;18942.06;5052120;28;20229;-60
2022/11/17 10:36:17;;;;;;;5.00;4.30;;;5.80;99.90;;;-141.84;82.41;18940.03;5070767;28;20230;-60
2022/11/17 10:38:48;;;;;;;5.77;4.80;;;5.80;99.90;;;-141.84;82.45;18938.00;5062085;28;20568;-62
2022/11/17 10:41:22;;;;;;;6.70;4.83;;;5.80;99.90;;;-141.84;82.78;18954.25;5041821;28;20719;-62
2022/11/17 10:44:01;;;;;;;5.17;4.53;;;5.90;99.90;;;-141.84;82.26;18972.53;5050379;28;20190;-61
2022/11/17 10:46:31;;;;;;;5.67;4.70;;;5.90;99.90;;;-141.84;82.73;18968.47;5050934;28;20236;-61
2022/11/17 10:49:26;;;;;;;6.50;4.57;;;5.90;99.90;;;-141.84;82.78;18956.28;5050693;28;20281;-61
2022/11/17 10:52:06;;;;;;;5.13;4.27;;;5.90;99.90;;;-141.84;82.92;18935.97;5050912;28;20285;-62
2022/11/17 10:54:35;;;;;;;5.97;4.63;;;5.90;99.90;;;-141.84;82.88;18986.75;5054205;28;20266;-63
2022/11/17 10:57:08;;;;;;;5.30;4.80;;;5.90;99.90;;;-141.84;83.36;18938.00;5054194;28;20233;-61
2022/11/17 10:59:46;;;;;;;6.87;4.83;;;5.90;99.90;;;-141.84;83.59;18935.97;5053984;28;20232;-60
2022/11/17 11:02:30;;;;;;;6.47;4.87;;;5.90;99.90;;;-141.84;84.09;18923.78;5054390;28;20228;-61
2022/11/17 11:05:08;;;;;;;6.37;4.57;;;5.80;99.90;;;-141.84;84.20;18911.56;5053753;28;20236;-63
2022/11/17 11:07:36;;;;;;;6.40;4.80;;;5.80;99.90;;;-141.84;84.04;18944.09;5054363;28;20182;-60